sensor_id;sensor_type;location;lat;lon;timestamp;P1;durP1;ratioP1;P2;durP2;ratioP2
11319;SDS011;5715;48.234;14.320;2022-10-19T00:01:34;6.43;;;5.23;;
11319;SDS011;5715;48.234;14.320;2022-10-19T00:04:22;12.20;;;5.40;;
11319;SDS011;5715;48.234;14.320;2022-10-19T00:07:09;14.67;;;5.77;;
11319;SDS011;5715;48.234;14.320;2022-10-19T00:09:57;6.17;;;5.23;;
11319;SDS011;5715;48.234;14.320;2022-10-19T00:12:44;24.87;;;4.87;;
11319;SDS011;5715;48.234;14.320;2022-10-19T00:15:37;10.83;;;6.07;;
11319;SDS011;5715;48.234;14.320;2022-10-19T00:18:26;6.47;;;5.40;;
11319;SDS011;5715;48.234;14.320;2022-10-19T00:21:15;12.63;;;5.50;;
11319;SDS011;5715;48.234;14.320;2022-10-19T00:24:05;5.20;;;4.73;;
11319;SDS011;5715;48.234;14.320;2022-10-19T00:26:54;5.57;;;5.00;;
11319;SDS011;5715;48.234;14.320;2022-10-19T00:29:41;6.37;;;5.43;;
11319;SDS011;5715;48.234;14.320;2022-10-19T00:32:29;5.50;;;5.00;;
11319;SDS011;5715;48.234;14.320;2022-10-19T00:35:17;7.43;;;5.23;;
11319;SDS011;5715;48.234;14.320;2022-10-19T00:38:04;13.60;;;5.23;;
11319;SDS011;5715;48.234;14.320;2022-10-19T00:40:52;6.80;;;5.40;;
11319;SDS011;5715;48.234;14.320;2022-10-19T00:46:42;5.33;;;4.83;;
11319;SDS011;5715;48.234;14.320;2022-10-19T00:49:36;6.07;;;5.47;;
11319;SDS011;5715;48.234;14.320;2022-10-19T00:52:29;5.47;;;4.90;;
11319;SDS011;5715;48.234;14.320;2022-10-19T00:55:18;6.93;;;5.97;;
11319;SDS011;5715;48.234;14.320;2022-10-19T00:58:06;6.73;;;5.90;;
11319;SDS011;5715;48.234;14.320;2022-10-19T01:00:55;9.33;;;7.13;;
11319;SDS011;5715;48.234;14.320;2022-10-19T01:03:47;4.97;;;4.57;;
11319;SDS011;5715;48.234;14.320;2022-10-19T01:06:34;5.87;;;5.33;;
11319;SDS011;5715;48.234;14.320;2022-10-19T01:09:22;6.03;;;5.47;;
11319;SDS011;5715;48.234;14.320;2022-10-19T01:12:14;5.23;;;4.73;;
11319;SDS011;5715;48.234;14.320;2022-10-19T01:15:34;9.40;;;4.60;;
11319;SDS011;5715;48.234;14.320;2022-10-19T01:18:53;8.73;;;4.97;;
11319;SDS011;5715;48.234;14.320;2022-10-19T01:32:05;12.00;;;5.90;;
11319;SDS011;5715;48.234;14.320;2022-10-19T01:35:02;5.73;;;4.90;;
11319;SDS011;5715;48.234;14.320;2022-10-19T01:44:17;5.03;;;4.57;;
11319;SDS011;5715;48.234;14.320;2022-10-19T01:50:46;5.85;;;5.18;;
11319;SDS011;5715;48.234;14.320;2022-10-19T01:53:46;10.70;;;5.03;;
11319;SDS011;5715;48.234;14.320;2022-10-19T01:56:40;7.10;;;6.18;;
11319;SDS011;5715;48.234;14.320;2022-10-19T01:59:32;6.93;;;6.22;;
11319;SDS011;5715;48.234;14.320;2022-10-19T02:02:20;22.70;;;5.50;;
11319;SDS011;5715;48.234;14.320;2022-10-19T02:05:11;8.80;;;5.17;;
11319;SDS011;5715;48.234;14.320;2022-10-19T02:08:08;6.28;;;5.35;;
11319;SDS011;5715;48.234;14.320;2022-10-19T02:11:02;13.03;;;4.83;;
11319;SDS011;5715;48.234;14.320;2022-10-19T02:14:03;5.53;;;5.03;;
11319;SDS011;5715;48.234;14.320;2022-10-19T02:16:58;6.70;;;5.03;;
11319;SDS011;5715;48.234;14.320;2022-10-19T02:19:59;6.20;;;5.60;;
11319;SDS011;5715;48.234;14.320;2022-10-19T02:22:49;7.60;;;5.17;;
11319;SDS011;5715;48.234;14.320;2022-10-19T02:25:36;6.50;;;5.68;;
11319;SDS011;5715;48.234;14.320;2022-10-19T02:28:24;7.43;;;5.20;;
11319;SDS011;5715;48.234;14.320;2022-10-19T02:31:14;5.77;;;4.90;;
11319;SDS011;5715;48.234;14.320;2022-10-19T02:34:02;12.10;;;5.33;;
11319;SDS011;5715;48.234;14.320;2022-10-19T02:36:51;6.93;;;5.43;;
11319;SDS011;5715;48.234;14.320;2022-10-19T02:39:39;4.90;;;4.50;;
11319;SDS011;5715;48.234;14.320;2022-10-19T02:42:28;5.17;;;4.67;;
11319;SDS011;5715;48.234;14.320;2022-10-19T02:45:30;5.80;;;5.17;;
11319;SDS011;5715;48.234;14.320;2022-10-19T02:48:23;6.63;;;4.77;;
11319;SDS011;5715;48.234;14.320;2022-10-19T02:54:23;5.25;;;4.75;;
11319;SDS011;5715;48.234;14.320;2022-10-19T03:00:08;6.73;;;5.13;;
11319;SDS011;5715;48.234;14.320;2022-10-19T03:02:56;7.07;;;5.80;;
11319;SDS011;5715;48.234;14.320;2022-10-19T03:05:44;13.17;;;5.03;;
11319;SDS011;5715;48.234;14.320;2022-10-19T03:08:31;6.50;;;4.80;;
11319;SDS011;5715;48.234;14.320;2022-10-19T03:11:19;8.90;;;8.20;;
11319;SDS011;5715;48.234;14.320;2022-10-19T03:14:06;5.53;;;4.80;;
11319;SDS011;5715;48.234;14.320;2022-10-19T03:16:54;4.70;;;4.30;;
11319;SDS011;5715;48.234;14.320;2022-10-19T03:19:41;5.40;;;4.17;;
11319;SDS011;5715;48.234;14.320;2022-10-19T03:22:29;8.40;;;4.93;;
11319;SDS011;5715;48.234;14.320;2022-10-19T03:25:16;4.97;;;4.47;;
11319;SDS011;5715;48.234;14.320;2022-10-19T03:28:04;4.73;;;4.23;;
11319;SDS011;5715;48.234;14.320;2022-10-19T03:30:51;8.23;;;5.10;;
11319;SDS011;5715;48.234;14.320;2022-10-19T03:33:39;6.20;;;4.57;;
11319;SDS011;5715;48.234;14.320;2022-10-19T03:36:30;6.53;;;5.83;;
11319;SDS011;5715;48.234;14.320;2022-10-19T03:39:21;6.10;;;4.73;;
11319;SDS011;5715;48.234;14.320;2022-10-19T03:42:08;7.27;;;4.17;;
11319;SDS011;5715;48.234;14.320;2022-10-19T03:44:56;5.13;;;4.50;;
11319;SDS011;5715;48.234;14.320;2022-10-19T03:47:47;4.63;;;4.10;;
11319;SDS011;5715;48.234;14.320;2022-10-19T03:50:37;9.77;;;4.67;;
11319;SDS011;5715;48.234;14.320;2022-10-19T03:53:25;8.30;;;5.70;;
11319;SDS011;5715;48.234;14.320;2022-10-19T03:56:14;5.77;;;5.17;;
11319;SDS011;5715;48.234;14.320;2022-10-19T03:59:05;8.70;;;5.70;;
11319;SDS011;5715;48.234;14.320;2022-10-19T04:01:53;4.93;;;4.53;;
11319;SDS011;5715;48.234;14.320;2022-10-19T04:04:40;9.73;;;5.27;;
11319;SDS011;5715;48.234;14.320;2022-10-19T04:07:28;9.10;;;5.13;;
11319;SDS011;5715;48.234;14.320;2022-10-19T04:10:15;8.70;;;5.23;;
11319;SDS011;5715;48.234;14.320;2022-10-19T04:13:03;7.10;;;4.67;;
11319;SDS011;5715;48.234;14.320;2022-10-19T04:15:50;7.67;;;5.37;;
11319;SDS011;5715;48.234;14.320;2022-10-19T04:18:37;7.37;;;3.73;;
11319;SDS011;5715;48.234;14.320;2022-10-19T04:21:29;12.77;;;4.77;;
11319;SDS011;5715;48.234;14.320;2022-10-19T04:24:19;4.87;;;4.00;;
11319;SDS011;5715;48.234;14.320;2022-10-19T04:27:07;5.73;;;4.43;;
11319;SDS011;5715;48.234;14.320;2022-10-19T04:29:54;9.77;;;4.00;;
11319;SDS011;5715;48.234;14.320;2022-10-19T04:32:42;4.07;;;3.77;;
11319;SDS011;5715;48.234;14.320;2022-10-19T04:35:29;4.63;;;3.33;;
11319;SDS011;5715;48.234;14.320;2022-10-19T04:38:17;4.73;;;3.77;;
11319;SDS011;5715;48.234;14.320;2022-10-19T04:41:05;3.40;;;3.10;;
11319;SDS011;5715;48.234;14.320;2022-10-19T04:44:00;3.37;;;3.07;;
11319;SDS011;5715;48.234;14.320;2022-10-19T04:46:50;3.63;;;3.20;;
11319;SDS011;5715;48.234;14.320;2022-10-19T04:49:38;9.63;;;3.77;;
11319;SDS011;5715;48.234;14.320;2022-10-19T04:52:25;4.00;;;3.60;;
11319;SDS011;5715;48.234;14.320;2022-10-19T04:55:12;3.90;;;3.50;;
11319;SDS011;5715;48.234;14.320;2022-10-19T04:58:00;6.20;;;4.03;;
11319;SDS011;5715;48.234;14.320;2022-10-19T05:00:47;4.03;;;3.70;;
11319;SDS011;5715;48.234;14.320;2022-10-19T05:03:35;3.53;;;3.23;;
11319;SDS011;5715;48.234;14.320;2022-10-19T05:06:23;5.63;;;3.93;;
11319;SDS011;5715;48.234;14.320;2022-10-19T05:09:11;4.83;;;3.80;;
11319;SDS011;5715;48.234;14.320;2022-10-19T05:11:59;2.97;;;2.67;;
11319;SDS011;5715;48.234;14.320;2022-10-19T05:14:46;5.53;;;4.07;;
11319;SDS011;5715;48.234;14.320;2022-10-19T05:17:34;4.40;;;3.60;;
11319;SDS011;5715;48.234;14.320;2022-10-19T05:20:22;3.73;;;3.43;;
11319;SDS011;5715;48.234;14.320;2022-10-19T05:23:10;4.13;;;3.73;;
11319;SDS011;5715;48.234;14.320;2022-10-19T05:26:02;7.53;;;3.73;;
11319;SDS011;5715;48.234;14.320;2022-10-19T05:28:59;3.83;;;3.50;;
11319;SDS011;5715;48.234;14.320;2022-10-19T05:31:48;4.33;;;3.33;;
11319;SDS011;5715;48.234;14.320;2022-10-19T05:34:36;5.93;;;4.30;;
11319;SDS011;5715;48.234;14.320;2022-10-19T05:37:23;5.73;;;4.17;;
11319;SDS011;5715;48.234;14.320;2022-10-19T05:40:11;5.80;;;5.27;;
11319;SDS011;5715;48.234;14.320;2022-10-19T05:42:58;4.30;;;3.83;;
11319;SDS011;5715;48.234;14.320;2022-10-19T05:45:46;4.87;;;4.37;;
11319;SDS011;5715;48.234;14.320;2022-10-19T05:48:33;7.43;;;4.25;;
11319;SDS011;5715;48.234;14.320;2022-10-19T05:51:21;4.03;;;3.63;;
11319;SDS011;5715;48.234;14.320;2022-10-19T05:54:11;11.47;;;4.80;;
11319;SDS011;5715;48.234;14.320;2022-10-19T05:56:59;5.00;;;3.63;;
11319;SDS011;5715;48.234;14.320;2022-10-19T05:59:48;5.83;;;4.60;;
11319;SDS011;5715;48.234;14.320;2022-10-19T06:02:35;6.77;;;4.30;;
11319;SDS011;5715;48.234;14.320;2022-10-19T06:05:23;5.67;;;4.47;;
11319;SDS011;5715;48.234;14.320;2022-10-19T06:08:10;5.63;;;3.73;;
11319;SDS011;5715;48.234;14.320;2022-10-19T06:11:08;4.40;;;4.00;;
11319;SDS011;5715;48.234;14.320;2022-10-19T06:14:10;4.43;;;3.90;;
11319;SDS011;5715;48.234;14.320;2022-10-19T06:17:01;3.93;;;3.50;;
11319;SDS011;5715;48.234;14.320;2022-10-19T06:19:48;4.00;;;3.70;;
11319;SDS011;5715;48.234;14.320;2022-10-19T06:22:36;5.07;;;3.63;;
11319;SDS011;5715;48.234;14.320;2022-10-19T06:25:23;5.23;;;3.50;;
11319;SDS011;5715;48.234;14.320;2022-10-19T06:28:11;4.55;;;4.13;;
11319;SDS011;5715;48.234;14.320;2022-10-19T06:30:59;3.95;;;3.53;;
11319;SDS011;5715;48.234;14.320;2022-10-19T06:33:47;4.05;;;3.65;;
11319;SDS011;5715;48.234;14.320;2022-10-19T06:36:35;5.40;;;4.17;;
11319;SDS011;5715;48.234;14.320;2022-10-19T06:39:22;4.43;;;3.87;;
11319;SDS011;5715;48.234;14.320;2022-10-19T06:42:10;7.17;;;4.57;;
11319;SDS011;5715;48.234;14.320;2022-10-19T06:44:57;3.47;;;3.17;;
11319;SDS011;5715;48.234;14.320;2022-10-19T06:47:45;4.10;;;3.70;;
11319;SDS011;5715;48.234;14.320;2022-10-19T06:50:37;12.07;;;5.87;;
11319;SDS011;5715;48.234;14.320;2022-10-19T06:53:25;4.17;;;3.87;;
11319;SDS011;5715;48.234;14.320;2022-10-19T06:56:14;5.23;;;4.07;;
11319;SDS011;5715;48.234;14.320;2022-10-19T06:59:02;4.33;;;4.00;;
11319;SDS011;5715;48.234;14.320;2022-10-19T07:01:50;5.32;;;4.22;;
11319;SDS011;5715;48.234;14.320;2022-10-19T07:04:37;3.55;;;3.25;;
11319;SDS011;5715;48.234;14.320;2022-10-19T07:07:25;3.78;;;3.38;;
11319;SDS011;5715;48.234;14.320;2022-10-19T07:10:12;4.72;;;4.32;;
11319;SDS011;5715;48.234;14.320;2022-10-19T07:13:00;14.18;;;4.10;;
11319;SDS011;5715;48.234;14.320;2022-10-19T07:15:48;4.53;;;3.57;;
11319;SDS011;5715;48.234;14.320;2022-10-19T07:18:41;4.22;;;3.58;;
11319;SDS011;5715;48.234;14.320;2022-10-19T07:21:29;4.70;;;3.92;;
11319;SDS011;5715;48.234;14.320;2022-10-19T07:24:17;7.03;;;3.92;;
11319;SDS011;5715;48.234;14.320;2022-10-19T07:27:05;3.33;;;3.03;;
11319;SDS011;5715;48.234;14.320;2022-10-19T07:29:53;4.30;;;3.47;;
11319;SDS011;5715;48.234;14.320;2022-10-19T07:32:40;4.60;;;3.72;;
11319;SDS011;5715;48.234;14.320;2022-10-19T07:35:32;5.63;;;3.27;;
11319;SDS011;5715;48.234;14.320;2022-10-19T07:38:20;4.90;;;3.67;;
11319;SDS011;5715;48.234;14.320;2022-10-19T07:41:08;4.22;;;2.83;;
11319;SDS011;5715;48.234;14.320;2022-10-19T07:43:58;9.35;;;3.67;;
11319;SDS011;5715;48.234;14.320;2022-10-19T07:46:47;3.33;;;2.95;;
11319;SDS011;5715;48.234;14.320;2022-10-19T07:49:34;3.90;;;3.28;;
11319;SDS011;5715;48.234;14.320;2022-10-19T07:52:21;5.53;;;2.85;;
11319;SDS011;5715;48.234;14.320;2022-10-19T07:55:09;3.25;;;2.83;;
11319;SDS011;5715;48.234;14.320;2022-10-19T07:57:56;3.42;;;2.92;;
11319;SDS011;5715;48.234;14.320;2022-10-19T08:00:47;8.93;;;3.53;;
11319;SDS011;5715;48.234;14.320;2022-10-19T08:03:34;3.42;;;2.67;;
11319;SDS011;5715;48.234;14.320;2022-10-19T08:06:43;3.28;;;2.90;;
11319;SDS011;5715;48.234;14.320;2022-10-19T08:09:30;3.72;;;3.00;;
11319;SDS011;5715;48.234;14.320;2022-10-19T08:12:38;3.97;;;3.42;;
11319;SDS011;5715;48.234;14.320;2022-10-19T08:15:27;4.75;;;4.28;;
11319;SDS011;5715;48.234;14.320;2022-10-19T08:18:15;4.60;;;4.20;;
11319;SDS011;5715;48.234;14.320;2022-10-19T08:21:04;3.65;;;3.35;;
11319;SDS011;5715;48.234;14.320;2022-10-19T08:23:51;3.10;;;2.90;;
11319;SDS011;5715;48.234;14.320;2022-10-19T08:26:40;2.35;;;2.15;;
11319;SDS011;5715;48.234;14.320;2022-10-19T08:29:28;2.13;;;1.92;;
11319;SDS011;5715;48.234;14.320;2022-10-19T08:32:17;2.28;;;2.00;;
11319;SDS011;5715;48.234;14.320;2022-10-19T08:35:05;2.88;;;2.60;;
11319;SDS011;5715;48.234;14.320;2022-10-19T08:37:56;1.90;;;1.70;;
11319;SDS011;5715;48.234;14.320;2022-10-19T08:40:44;2.03;;;1.92;;
11319;SDS011;5715;48.234;14.320;2022-10-19T08:43:33;7.70;;;2.00;;
11319;SDS011;5715;48.234;14.320;2022-10-19T08:49:59;6.90;;;2.55;;
11319;SDS011;5715;48.234;14.320;2022-10-19T08:52:54;2.08;;;1.98;;
11319;SDS011;5715;48.234;14.320;2022-10-19T09:02:41;2.97;;;2.63;;
11319;SDS011;5715;48.234;14.320;2022-10-19T09:06:11;10.18;;;3.15;;
11319;SDS011;5715;48.234;14.320;2022-10-19T09:09:10;3.70;;;1.85;;
11319;SDS011;5715;48.234;14.320;2022-10-19T09:12:03;2.42;;;2.22;;
11319;SDS011;5715;48.234;14.320;2022-10-19T09:14:56;3.58;;;2.67;;
11319;SDS011;5715;48.234;14.320;2022-10-19T09:21:11;4.28;;;3.88;;
11319;SDS011;5715;48.234;14.320;2022-10-19T09:24:27;3.78;;;3.47;;
11319;SDS011;5715;48.234;14.320;2022-10-19T09:27:25;7.22;;;3.85;;
11319;SDS011;5715;48.234;14.320;2022-10-19T09:30:23;5.22;;;4.82;;
11319;SDS011;5715;48.234;14.320;2022-10-19T09:33:15;5.25;;;4.75;;
11319;SDS011;5715;48.234;14.320;2022-10-19T09:36:14;7.43;;;5.85;;
11319;SDS011;5715;48.234;14.320;2022-10-19T09:39:13;6.30;;;4.82;;
11319;SDS011;5715;48.234;14.320;2022-10-19T09:46:05;6.70;;;5.35;;
11319;SDS011;5715;48.234;14.320;2022-10-19T09:51:45;5.88;;;5.18;;
11319;SDS011;5715;48.234;14.320;2022-10-19T09:54:38;15.40;;;5.65;;
11319;SDS011;5715;48.234;14.320;2022-10-19T09:57:25;4.90;;;4.15;;
11319;SDS011;5715;48.234;14.320;2022-10-19T10:00:17;6.38;;;4.93;;
11319;SDS011;5715;48.234;14.320;2022-10-19T10:06:21;4.30;;;3.90;;
11319;SDS011;5715;48.234;14.320;2022-10-19T10:09:14;7.15;;;4.35;;
11319;SDS011;5715;48.234;14.320;2022-10-19T10:12:05;5.72;;;4.20;;
11319;SDS011;5715;48.234;14.320;2022-10-19T10:14:54;14.00;;;4.93;;
11319;SDS011;5715;48.234;14.320;2022-10-19T10:17:43;7.22;;;5.40;;
11319;SDS011;5715;48.234;14.320;2022-10-19T10:20:33;5.30;;;4.80;;
11319;SDS011;5715;48.234;14.320;2022-10-19T10:23:23;5.40;;;4.30;;
11319;SDS011;5715;48.234;14.320;2022-10-19T10:26:15;4.43;;;4.03;;
11319;SDS011;5715;48.234;14.320;2022-10-19T10:32:18;5.03;;;4.28;;
11319;SDS011;5715;48.234;14.320;2022-10-19T10:35:15;10.07;;;4.22;;
11319;SDS011;5715;48.234;14.320;2022-10-19T10:38:10;5.22;;;4.55;;
11319;SDS011;5715;48.234;14.320;2022-10-19T10:41:10;4.47;;;3.78;;
11319;SDS011;5715;48.234;14.320;2022-10-19T10:44:05;5.55;;;4.00;;
11319;SDS011;5715;48.234;14.320;2022-10-19T10:47:10;5.78;;;3.50;;
11319;SDS011;5715;48.234;14.320;2022-10-19T10:50:03;3.85;;;3.42;;
11319;SDS011;5715;48.234;14.320;2022-10-19T10:53:03;3.78;;;3.47;;
11319;SDS011;5715;48.234;14.320;2022-10-19T10:55:56;4.40;;;3.78;;
11319;SDS011;5715;48.234;14.320;2022-10-19T10:58:49;4.70;;;3.78;;
11319;SDS011;5715;48.234;14.320;2022-10-19T11:05:47;4.97;;;3.38;;
11319;SDS011;5715;48.234;14.320;2022-10-19T11:08:55;4.10;;;3.47;;
11319;SDS011;5715;48.234;14.320;2022-10-19T11:11:51;4.13;;;3.72;;
11319;SDS011;5715;48.234;14.320;2022-10-19T11:14:45;4.88;;;3.72;;
11319;SDS011;5715;48.234;14.320;2022-10-19T11:17:47;8.95;;;3.78;;
11319;SDS011;5715;48.234;14.320;2022-10-19T11:33:10;5.88;;;4.00;;
11319;SDS011;5715;48.234;14.320;2022-10-19T11:39:20;8.02;;;3.88;;
11319;SDS011;5715;48.234;14.320;2022-10-19T11:51:46;3.33;;;2.60;;
11319;SDS011;5715;48.234;14.320;2022-10-19T11:57:58;4.15;;;3.22;;
11319;SDS011;5715;48.234;14.320;2022-10-19T12:04:19;4.35;;;2.88;;
11319;SDS011;5715;48.234;14.320;2022-10-19T12:13:50;4.63;;;3.15;;
11319;SDS011;5715;48.234;14.320;2022-10-19T12:16:46;5.25;;;2.70;;
11319;SDS011;5715;48.234;14.320;2022-10-19T12:19:45;5.25;;;3.17;;
11319;SDS011;5715;48.234;14.320;2022-10-19T12:22:37;3.30;;;3.00;;
11319;SDS011;5715;48.234;14.320;2022-10-19T12:25:26;3.42;;;2.78;;
11319;SDS011;5715;48.234;14.320;2022-10-19T12:28:17;4.28;;;3.20;;
11319;SDS011;5715;48.234;14.320;2022-10-19T12:31:13;3.38;;;2.72;;
11319;SDS011;5715;48.234;14.320;2022-10-19T12:37:18;2.08;;;1.98;;
11319;SDS011;5715;48.234;14.320;2022-10-19T12:43:29;2.85;;;2.50;;
11319;SDS011;5715;48.234;14.320;2022-10-19T12:52:32;2.60;;;2.40;;
11319;SDS011;5715;48.234;14.320;2022-10-19T12:55:25;3.05;;;2.70;;
11319;SDS011;5715;48.234;14.320;2022-10-19T12:58:20;10.35;;;3.15;;
11319;SDS011;5715;48.234;14.320;2022-10-19T13:04:29;3.05;;;2.83;;
11319;SDS011;5715;48.234;14.320;2022-10-19T13:07:21;2.70;;;2.50;;
11319;SDS011;5715;48.234;14.320;2022-10-19T13:10:18;4.90;;;3.38;;
11319;SDS011;5715;48.234;14.320;2022-10-19T13:16:59;3.00;;;2.70;;
11319;SDS011;5715;48.234;14.320;2022-10-19T13:19:48;3.85;;;3.08;;
11319;SDS011;5715;48.234;14.320;2022-10-19T13:22:36;2.90;;;2.58;;
11319;SDS011;5715;48.234;14.320;2022-10-19T13:25:25;3.13;;;2.75;;
11319;SDS011;5715;48.234;14.320;2022-10-19T13:28:35;5.22;;;2.28;;
11319;SDS011;5715;48.234;14.320;2022-10-19T13:31:26;2.80;;;2.60;;
11319;SDS011;5715;48.234;14.320;2022-10-19T13:34:22;2.65;;;2.45;;
11319;SDS011;5715;48.234;14.320;2022-10-19T13:37:11;2.25;;;2.00;;
11319;SDS011;5715;48.234;14.320;2022-10-19T13:39:59;4.95;;;2.50;;
11319;SDS011;5715;48.234;14.320;2022-10-19T13:42:59;3.72;;;2.20;;
11319;SDS011;5715;48.234;14.320;2022-10-19T13:59:01;2.60;;;2.40;;
11319;SDS011;5715;48.234;14.320;2022-10-19T14:12:48;2.80;;;2.60;;
11319;SDS011;5715;48.234;14.320;2022-10-19T14:15:37;4.55;;;2.78;;
11319;SDS011;5715;48.234;14.320;2022-10-19T14:21:15;2.72;;;2.53;;
11319;SDS011;5715;48.234;14.320;2022-10-19T14:24:33;4.18;;;3.88;;
11319;SDS011;5715;48.234;14.320;2022-10-19T14:27:22;3.67;;;3.38;;
11319;SDS011;5715;48.234;14.320;2022-10-19T14:30:20;3.22;;;3.00;;
11319;SDS011;5715;48.234;14.320;2022-10-19T14:33:13;2.85;;;2.65;;
11319;SDS011;5715;48.234;14.320;2022-10-19T14:36:04;2.85;;;2.65;;
11319;SDS011;5715;48.234;14.320;2022-10-19T14:39:00;2.88;;;2.67;;
11319;SDS011;5715;48.234;14.320;2022-10-19T14:41:51;2.60;;;2.40;;
11319;SDS011;5715;48.234;14.320;2022-10-19T14:44:42;2.70;;;2.45;;
11319;SDS011;5715;48.234;14.320;2022-10-19T14:47:30;2.95;;;2.75;;
11319;SDS011;5715;48.234;14.320;2022-10-19T14:50:19;2.95;;;2.72;;
11319;SDS011;5715;48.234;14.320;2022-10-19T14:56:47;3.83;;;3.25;;
11319;SDS011;5715;48.234;14.320;2022-10-19T14:59:58;3.47;;;3.17;;
11319;SDS011;5715;48.234;14.320;2022-10-19T15:03:09;2.83;;;2.63;;
11319;SDS011;5715;48.234;14.320;2022-10-19T15:06:05;3.47;;;3.17;;
11319;SDS011;5715;48.234;14.320;2022-10-19T15:09:02;3.10;;;2.80;;
11319;SDS011;5715;48.234;14.320;2022-10-19T15:12:06;3.40;;;3.10;;
11319;SDS011;5715;48.234;14.320;2022-10-19T15:15:23;3.03;;;2.72;;
11319;SDS011;5715;48.234;14.320;2022-10-19T15:18:18;3.50;;;2.65;;
11319;SDS011;5715;48.234;14.320;2022-10-19T15:21:31;6.25;;;2.60;;
11319;SDS011;5715;48.234;14.320;2022-10-19T15:24:26;3.35;;;3.03;;
11319;SDS011;5715;48.234;14.320;2022-10-19T15:27:18;3.53;;;3.25;;
11319;SDS011;5715;48.234;14.320;2022-10-19T15:33:09;3.13;;;2.88;;
11319;SDS011;5715;48.234;14.320;2022-10-19T15:36:08;3.85;;;3.22;;
11319;SDS011;5715;48.234;14.320;2022-10-19T15:39:03;3.38;;;2.60;;
11319;SDS011;5715;48.234;14.320;2022-10-19T15:42:21;8.82;;;2.70;;
11319;SDS011;5715;48.234;14.320;2022-10-19T15:48:25;5.50;;;2.67;;
11319;SDS011;5715;48.234;14.320;2022-10-19T15:51:40;3.28;;;2.30;;
11319;SDS011;5715;48.234;14.320;2022-10-19T15:54:31;3.15;;;2.60;;
11319;SDS011;5715;48.234;14.320;2022-10-19T15:57:32;14.13;;;12.90;;
11319;SDS011;5715;48.234;14.320;2022-10-19T16:00:25;4.03;;;2.90;;
11319;SDS011;5715;48.234;14.320;2022-10-19T16:03:15;3.28;;;2.65;;
11319;SDS011;5715;48.234;14.320;2022-10-19T16:06:03;3.42;;;3.00;;
11319;SDS011;5715;48.234;14.320;2022-10-19T16:08:51;4.55;;;3.42;;
11319;SDS011;5715;48.234;14.320;2022-10-19T16:11:42;5.50;;;3.08;;
11319;SDS011;5715;48.234;14.320;2022-10-19T16:14:30;3.90;;;3.55;;
11319;SDS011;5715;48.234;14.320;2022-10-19T16:17:22;5.40;;;3.30;;
11319;SDS011;5715;48.234;14.320;2022-10-19T16:20:09;3.85;;;3.38;;
11319;SDS011;5715;48.234;14.320;2022-10-19T16:22:58;4.75;;;3.63;;
11319;SDS011;5715;48.234;14.320;2022-10-19T16:25:45;4.43;;;4.03;;
11319;SDS011;5715;48.234;14.320;2022-10-19T16:28:33;4.72;;;3.58;;
11319;SDS011;5715;48.234;14.320;2022-10-19T16:31:22;4.45;;;3.50;;
11319;SDS011;5715;48.234;14.320;2022-10-19T16:34:10;4.63;;;3.47;;
11319;SDS011;5715;48.234;14.320;2022-10-19T16:36:57;2.92;;;2.72;;
11319;SDS011;5715;48.234;14.320;2022-10-19T16:39:52;11.70;;;4.10;;
11319;SDS011;5715;48.234;14.320;2022-10-19T16:42:40;4.82;;;3.20;;
11319;SDS011;5715;48.234;14.320;2022-10-19T16:45:27;4.75;;;3.50;;
11319;SDS011;5715;48.234;14.320;2022-10-19T16:48:15;3.75;;;3.30;;
11319;SDS011;5715;48.234;14.320;2022-10-19T16:54:13;4.75;;;3.53;;
11319;SDS011;5715;48.234;14.320;2022-10-19T16:57:01;3.90;;;3.50;;
11319;SDS011;5715;48.234;14.320;2022-10-19T16:59:55;6.17;;;4.03;;
11319;SDS011;5715;48.234;14.320;2022-10-19T17:02:42;5.03;;;3.57;;
11319;SDS011;5715;48.234;14.320;2022-10-19T17:05:35;4.45;;;3.40;;
11319;SDS011;5715;48.234;14.320;2022-10-19T17:08:24;7.43;;;3.53;;
11319;SDS011;5715;48.234;14.320;2022-10-19T17:11:30;7.63;;;4.32;;
11319;SDS011;5715;48.234;14.320;2022-10-19T17:14:21;8.02;;;4.05;;
11319;SDS011;5715;48.234;14.320;2022-10-19T17:17:09;4.80;;;3.30;;
11319;SDS011;5715;48.234;14.320;2022-10-19T17:19:57;6.13;;;4.83;;
11319;SDS011;5715;48.234;14.320;2022-10-19T17:22:44;7.93;;;4.83;;
11319;SDS011;5715;48.234;14.320;2022-10-19T17:25:33;4.17;;;3.60;;
11319;SDS011;5715;48.234;14.320;2022-10-19T17:28:20;7.25;;;4.25;;
11319;SDS011;5715;48.234;14.320;2022-10-19T17:31:12;5.47;;;3.83;;
11319;SDS011;5715;48.234;14.320;2022-10-19T17:34:00;6.77;;;3.87;;
11319;SDS011;5715;48.234;14.320;2022-10-19T17:36:49;4.10;;;3.20;;
11319;SDS011;5715;48.234;14.320;2022-10-19T17:39:37;6.07;;;3.93;;
11319;SDS011;5715;48.234;14.320;2022-10-19T17:42:24;4.18;;;3.78;;
11319;SDS011;5715;48.234;14.320;2022-10-19T17:45:12;12.97;;;4.13;;
11319;SDS011;5715;48.234;14.320;2022-10-19T17:47:59;5.10;;;3.87;;
11319;SDS011;5715;48.234;14.320;2022-10-19T17:50:54;7.50;;;3.50;;
11319;SDS011;5715;48.234;14.320;2022-10-19T17:53:50;5.30;;;3.92;;
11319;SDS011;5715;48.234;14.320;2022-10-19T17:56:37;7.80;;;4.67;;
11319;SDS011;5715;48.234;14.320;2022-10-19T17:59:26;8.80;;;4.50;;
11319;SDS011;5715;48.234;14.320;2022-10-19T18:02:20;4.93;;;3.67;;
11319;SDS011;5715;48.234;14.320;2022-10-19T18:05:08;6.70;;;4.67;;
11319;SDS011;5715;48.234;14.320;2022-10-19T18:07:55;5.97;;;4.40;;
11319;SDS011;5715;48.234;14.320;2022-10-19T18:10:43;6.07;;;4.70;;
11319;SDS011;5715;48.234;14.320;2022-10-19T18:13:30;7.57;;;4.20;;
11319;SDS011;5715;48.234;14.320;2022-10-19T18:16:21;7.57;;;5.03;;
11319;SDS011;5715;48.234;14.320;2022-10-19T18:19:13;7.13;;;4.78;;
11319;SDS011;5715;48.234;14.320;2022-10-19T18:22:02;7.20;;;3.87;;
11319;SDS011;5715;48.234;14.320;2022-10-19T18:24:50;5.97;;;4.80;;
11319;SDS011;5715;48.234;14.320;2022-10-19T18:27:37;5.03;;;4.40;;
11319;SDS011;5715;48.234;14.320;2022-10-19T18:30:25;13.47;;;5.23;;
11319;SDS011;5715;48.234;14.320;2022-10-19T18:33:13;7.37;;;4.60;;
11319;SDS011;5715;48.234;14.320;2022-10-19T18:36:01;5.73;;;4.43;;
11319;SDS011;5715;48.234;14.320;2022-10-19T18:38:50;5.43;;;4.57;;
11319;SDS011;5715;48.234;14.320;2022-10-19T18:41:40;5.70;;;4.47;;
11319;SDS011;5715;48.234;14.320;2022-10-19T18:44:28;3.97;;;3.57;;
11319;SDS011;5715;48.234;14.320;2022-10-19T18:47:19;5.20;;;3.87;;
11319;SDS011;5715;48.234;14.320;2022-10-19T18:50:06;7.60;;;4.13;;
11319;SDS011;5715;48.234;14.320;2022-10-19T18:52:55;5.03;;;4.53;;
11319;SDS011;5715;48.234;14.320;2022-10-19T18:55:42;5.67;;;4.90;;
11319;SDS011;5715;48.234;14.320;2022-10-19T18:58:31;11.20;;;4.63;;
11319;SDS011;5715;48.234;14.320;2022-10-19T19:01:20;10.20;;;5.33;;
11319;SDS011;5715;48.234;14.320;2022-10-19T19:04:12;5.37;;;4.83;;
11319;SDS011;5715;48.234;14.320;2022-10-19T19:07:00;7.93;;;4.90;;
11319;SDS011;5715;48.234;14.320;2022-10-19T19:09:48;7.27;;;4.87;;
11319;SDS011;5715;48.234;14.320;2022-10-19T19:12:36;5.40;;;4.83;;
11319;SDS011;5715;48.234;14.320;2022-10-19T19:15:24;11.10;;;5.23;;
11319;SDS011;5715;48.234;14.320;2022-10-19T19:18:11;6.10;;;5.50;;
11319;SDS011;5715;48.234;14.320;2022-10-19T19:20:59;7.60;;;5.20;;
11319;SDS011;5715;48.234;14.320;2022-10-19T19:23:48;10.70;;;5.93;;
11319;SDS011;5715;48.234;14.320;2022-10-19T19:26:38;5.77;;;4.57;;
11319;SDS011;5715;48.234;14.320;2022-10-19T19:29:30;6.40;;;5.40;;
11319;SDS011;5715;48.234;14.320;2022-10-19T19:32:17;8.03;;;5.57;;
11319;SDS011;5715;48.234;14.320;2022-10-19T19:35:05;6.57;;;4.67;;
11319;SDS011;5715;48.234;14.320;2022-10-19T19:37:53;6.43;;;5.50;;
11319;SDS011;5715;48.234;14.320;2022-10-19T19:40:40;5.43;;;4.43;;
11319;SDS011;5715;48.234;14.320;2022-10-19T19:43:31;17.13;;;5.20;;
11319;SDS011;5715;48.234;14.320;2022-10-19T19:46:22;5.23;;;4.73;;
11319;SDS011;5715;48.234;14.320;2022-10-19T19:49:10;8.60;;;6.10;;